createdAt,value
2019-03-16T00:00:13.682Z,5.00
2019-03-16T00:02:42.502Z,5.00
2019-03-16T00:05:11.249Z,5.00
2019-03-16T00:07:39.971Z,5.00
2019-03-16T00:10:08.715Z,5.10
2019-03-16T00:12:37.510Z,5.10
2019-03-16T00:15:07.545Z,5.10
2019-03-16T00:17:36.296Z,5.20
2019-03-16T00:20:12.057Z,5.20
2019-03-16T00:22:40.913Z,5.20
2019-03-16T00:25:10.436Z,5.20
2019-03-16T00:27:39.226Z,5.10
2019-03-16T00:30:14.970Z,5.10
2019-03-16T00:32:43.695Z,5.10
2019-03-16T00:35:12.621Z,5.00
2019-03-16T00:37:41.408Z,5.00
2019-03-16T00:40:12.032Z,5.00
2019-03-16T00:42:40.745Z,5.00
2019-03-16T00:45:11.404Z,5.00
2019-03-16T00:47:40.183Z,5.00
2019-03-16T00:50:12.686Z,4.90
2019-03-16T00:52:41.468Z,4.90
2019-03-16T00:55:11.057Z,4.90
2019-03-16T00:57:40.073Z,4.90
2019-03-16T01:00:16.362Z,4.90
2019-03-16T01:02:45.177Z,4.80
2019-03-16T01:05:15.033Z,4.90
2019-03-16T01:07:43.782Z,4.90
2019-03-16T01:10:12.508Z,4.90
2019-03-16T01:12:41.332Z,4.90
2019-03-16T01:15:13.434Z,4.90
2019-03-16T01:17:42.284Z,4.90
2019-03-16T01:20:12.661Z,5.00
2019-03-16T01:22:41.381Z,5.00
2019-03-16T01:25:12.869Z,5.00
2019-03-16T01:27:41.614Z,5.00
2019-03-16T01:30:15.385Z,4.90
2019-03-16T01:32:44.109Z,4.90
2019-03-16T01:35:13.047Z,4.80
2019-03-16T01:37:41.841Z,4.90
2019-03-16T01:40:11.412Z,4.80
2019-03-16T01:42:40.125Z,4.80
2019-03-16T01:45:10.047Z,4.80
2019-03-16T01:47:38.772Z,4.80
2019-03-16T01:50:09.520Z,4.70
2019-03-16T01:52:38.321Z,4.70
2019-03-16T01:55:08.691Z,4.70
2019-03-16T01:57:37.453Z,4.70
2019-03-16T02:00:09.148Z,4.70
2019-03-16T02:02:37.881Z,4.70
2019-03-16T02:05:07.532Z,4.70
2019-03-16T02:07:36.260Z,4.70
2019-03-16T02:10:05.885Z,4.70
2019-03-16T02:12:34.661Z,4.70
2019-03-16T02:15:03.629Z,4.70
2019-03-16T02:17:32.347Z,4.70
2019-03-16T02:20:01.134Z,4.70
2019-03-16T02:22:29.932Z,4.80
2019-03-16T02:24:58.713Z,4.80
2019-03-16T02:27:27.431Z,4.80
2019-03-16T02:29:56.197Z,4.80
2019-03-16T02:32:24.974Z,4.80
2019-03-16T02:34:53.697Z,4.80
2019-03-16T02:37:22.442Z,4.80
2019-03-16T02:39:51.194Z,4.80
2019-03-16T02:42:19.917Z,4.80
2019-03-16T02:44:48.673Z,4.80
2019-03-16T02:47:17.399Z,4.80
2019-03-16T02:49:46.120Z,4.90
2019-03-16T02:52:14.865Z,4.90
2019-03-16T02:54:43.611Z,4.90
2019-03-16T02:57:12.329Z,4.90
2019-03-16T02:59:41.114Z,4.90
2019-03-16T03:02:09.844Z,4.90
2019-03-16T03:04:38.561Z,4.90
2019-03-16T03:07:07.314Z,4.80
2019-03-16T03:09:36.037Z,4.90
2019-03-16T03:12:04.826Z,4.90
2019-03-16T03:14:33.645Z,4.90
2019-03-16T03:17:02.367Z,4.90
2019-03-16T03:19:31.086Z,4.90
2019-03-16T03:21:59.834Z,4.90
2019-03-16T03:24:28.568Z,4.90
2019-03-16T03:26:57.347Z,4.90
2019-03-16T03:29:26.160Z,5.00
2019-03-16T03:31:54.881Z,5.00
2019-03-16T03:34:23.711Z,5.00
2019-03-16T03:36:52.461Z,5.00
2019-03-16T03:39:21.286Z,5.00
2019-03-16T03:41:50.098Z,5.00
2019-03-16T03:44:18.822Z,4.90
2019-03-16T03:46:47.542Z,4.90
2019-03-16T03:49:16.309Z,4.90
2019-03-16T03:51:45.018Z,4.90
2019-03-16T03:54:13.844Z,4.90
2019-03-16T03:56:42.585Z,4.90
2019-03-16T03:59:11.312Z,4.80
2019-03-16T04:01:40.083Z,4.80
2019-03-16T04:04:15.508Z,4.80
2019-03-16T04:06:39.209Z,4.80
2019-03-16T04:09:08.621Z,4.80
2019-03-16T04:11:37.374Z,4.80
2019-03-16T04:14:06.093Z,4.80
2019-03-16T04:16:34.807Z,4.80
2019-03-16T04:19:03.578Z,4.80
2019-03-16T04:21:32.282Z,4.80
2019-03-16T04:24:01.094Z,4.80
2019-03-16T04:26:29.841Z,4.80
2019-03-16T04:28:58.568Z,4.90
2019-03-16T04:31:27.286Z,4.90
2019-03-16T04:33:56.049Z,4.90
2019-03-16T04:36:24.774Z,4.80
2019-03-16T04:38:53.498Z,4.80
2019-03-16T04:41:22.246Z,4.70
2019-03-16T04:43:50.998Z,4.70
2019-03-16T04:46:19.713Z,4.70
2019-03-16T04:48:48.470Z,4.70
2019-03-16T04:51:17.190Z,4.70
2019-03-16T04:53:45.902Z,4.70
2019-03-16T04:56:14.758Z,4.70
2019-03-16T04:58:43.509Z,4.70
2019-03-16T05:01:12.298Z,4.70
2019-03-16T05:03:41.052Z,4.70
2019-03-16T05:06:09.769Z,4.70
2019-03-16T05:08:38.690Z,4.70
2019-03-16T05:11:07.439Z,4.70
2019-03-16T05:13:36.164Z,4.70
2019-03-16T05:16:04.885Z,4.70
2019-03-16T05:18:33.718Z,4.70
2019-03-16T05:21:02.442Z,4.70
2019-03-16T05:23:31.165Z,4.70
2019-03-16T05:25:59.914Z,4.70
2019-03-16T05:28:28.654Z,4.70
2019-03-16T05:30:57.709Z,4.70
2019-03-16T05:33:26.477Z,4.60
2019-03-16T05:35:55.201Z,4.60
2019-03-16T05:38:23.929Z,4.60
2019-03-16T05:40:52.762Z,4.60
2019-03-16T05:43:21.481Z,4.60
2019-03-16T05:45:50.287Z,4.60
2019-03-16T05:48:19.045Z,4.60
2019-03-16T05:50:47.765Z,4.60
2019-03-16T05:53:16.535Z,4.50
2019-03-16T05:55:45.289Z,4.60
2019-03-16T05:58:14.009Z,4.60
2019-03-16T06:00:42.722Z,4.50
2019-03-16T06:03:11.537Z,4.50
2019-03-16T06:05:40.329Z,4.50
2019-03-16T06:08:09.053Z,4.50
2019-03-16T06:10:38.853Z,4.50
2019-03-16T06:13:07.581Z,4.50
2019-03-16T06:15:36.296Z,4.60
2019-03-16T06:18:05.082Z,4.60
2019-03-16T06:20:33.801Z,4.50
2019-03-16T06:23:02.527Z,4.50
2019-03-16T06:25:31.273Z,4.50
2019-03-16T06:27:59.990Z,4.50
2019-03-16T06:30:28.761Z,4.60
2019-03-16T06:32:57.513Z,4.60
2019-03-16T06:35:29.243Z,4.60
2019-03-16T06:37:56.610Z,4.60
2019-03-16T06:40:25.377Z,4.60
2019-03-16T06:42:54.102Z,4.60
2019-03-16T06:45:22.929Z,4.60
2019-03-16T06:47:54.613Z,4.60
2019-03-16T06:50:22.077Z,4.60
2019-03-16T06:52:50.794Z,4.60
2019-03-16T06:55:19.553Z,4.50
2019-03-16T06:57:48.277Z,4.50
2019-03-16T07:00:18.113Z,4.50
2019-03-16T07:02:46.929Z,4.50
2019-03-16T07:05:15.739Z,4.50
2019-03-16T07:07:44.449Z,4.40
2019-03-16T07:10:14.026Z,4.40
2019-03-16T07:12:42.762Z,4.40
2019-03-16T07:15:15.428Z,4.40
2019-03-16T07:17:44.178Z,4.30
2019-03-16T07:20:14.965Z,4.30
2019-03-16T07:22:43.689Z,4.30
2019-03-16T07:25:12.455Z,4.20
2019-03-16T07:27:41.187Z,4.20
2019-03-16T07:30:12.160Z,4.20
2019-03-16T07:32:40.924Z,4.10
2019-03-16T07:35:09.733Z,4.10
2019-03-16T07:37:38.544Z,4.20
2019-03-16T07:40:12.183Z,4.10
2019-03-16T07:42:40.892Z,4.20
2019-03-16T07:45:11.517Z,4.20
2019-03-16T07:47:40.257Z,4.20
2019-03-16T07:50:13.333Z,4.20
2019-03-16T07:52:42.163Z,4.30
2019-03-16T07:55:11.162Z,4.30
2019-03-16T07:57:40.923Z,4.30
2019-03-16T08:00:11.815Z,4.40
2019-03-16T08:02:40.873Z,4.30
2019-03-16T08:05:18.061Z,4.20
2019-03-16T08:07:40.530Z,4.30
2019-03-16T08:10:10.835Z,4.30
2019-03-16T08:12:39.537Z,4.40
2019-03-16T08:15:10.324Z,4.40
2019-03-16T08:17:39.049Z,4.40
2019-03-16T08:20:09.341Z,4.30
2019-03-16T08:22:38.067Z,4.30
2019-03-16T08:25:07.922Z,4.40
2019-03-16T08:27:36.801Z,4.50
2019-03-16T08:30:13.021Z,4.50
2019-03-16T08:32:41.743Z,4.60
2019-03-16T08:35:10.589Z,4.70
2019-03-16T08:37:39.347Z,4.60
2019-03-16T08:40:10.241Z,4.70
2019-03-16T08:42:39.105Z,4.70
2019-03-16T08:45:09.269Z,4.70
2019-03-16T08:47:38.001Z,4.70
2019-03-16T08:50:08.325Z,4.70
2019-03-16T08:52:37.064Z,4.70
2019-03-16T08:55:07.584Z,4.60
2019-03-16T08:57:36.309Z,4.60
2019-03-16T09:00:10.387Z,4.60
2019-03-16T09:02:39.209Z,4.60
2019-03-16T09:05:08.536Z,4.70
2019-03-16T09:07:37.305Z,4.70
2019-03-16T09:10:08.301Z,4.70
2019-03-16T09:12:37.030Z,4.70
2019-03-16T09:15:08.730Z,4.70
2019-03-16T09:17:37.457Z,4.70
2019-03-16T09:20:07.985Z,4.70
2019-03-16T09:22:36.746Z,4.70
2019-03-16T09:25:08.226Z,4.70
2019-03-16T09:27:36.946Z,4.70
2019-03-16T09:30:26.499Z,4.70
2019-03-16T09:32:55.212Z,4.80
2019-03-16T09:35:23.927Z,4.80
2019-03-16T09:37:52.680Z,4.70
2019-03-16T09:40:21.412Z,4.70
2019-03-16T09:42:50.214Z,4.70
2019-03-16T09:45:18.961Z,4.70
2019-03-16T09:47:47.678Z,4.70
2019-03-16T09:50:16.407Z,4.70
2019-03-16T09:52:45.189Z,4.60
2019-03-16T09:55:14.104Z,4.60
2019-03-16T09:57:42.828Z,4.70
2019-03-16T10:00:15.895Z,4.70
2019-03-16T10:02:44.615Z,4.70
2019-03-16T10:05:13.435Z,4.80
2019-03-16T10:07:42.257Z,4.80
2019-03-16T10:10:15.151Z,4.80
2019-03-16T10:12:43.880Z,4.80
2019-03-16T10:15:14.440Z,4.70
2019-03-16T10:17:43.166Z,4.80
2019-03-16T10:20:15.452Z,4.80
2019-03-16T10:22:44.268Z,4.80
2019-03-16T10:25:13.287Z,4.80
2019-03-16T10:27:42.006Z,4.70
2019-03-16T10:30:16.570Z,4.60
2019-03-16T10:32:45.294Z,4.70
2019-03-16T10:35:14.018Z,4.60
2019-03-16T10:37:42.773Z,4.70
2019-03-16T10:40:12.700Z,4.60
2019-03-16T10:42:41.418Z,4.50
2019-03-16T10:45:13.218Z,4.60
2019-03-16T10:47:41.959Z,4.60
2019-03-16T10:50:12.654Z,4.60
2019-03-16T10:52:41.403Z,4.60
2019-03-16T10:55:10.125Z,4.60
2019-03-16T10:57:38.853Z,4.60
2019-03-16T11:00:11.002Z,4.60
2019-03-16T11:02:39.729Z,4.60
2019-03-16T11:05:08.454Z,4.60
2019-03-16T11:07:37.202Z,4.60
2019-03-16T11:10:08.834Z,4.60
2019-03-16T11:12:37.557Z,4.60
2019-03-16T11:15:09.294Z,4.60
2019-03-16T11:17:38.013Z,4.60
2019-03-16T11:20:09.436Z,4.70
2019-03-16T11:22:38.167Z,4.70
2019-03-16T11:25:07.995Z,4.70
2019-03-16T11:27:36.746Z,4.70
2019-03-16T11:30:14.166Z,4.60
2019-03-16T11:32:42.904Z,4.60
2019-03-16T11:35:12.062Z,4.60
2019-03-16T11:37:40.777Z,4.60
2019-03-16T11:40:15.202Z,4.60
2019-03-16T11:42:44.049Z,4.60
2019-03-16T11:45:12.871Z,4.60
2019-03-16T11:47:41.629Z,4.50
2019-03-16T11:50:11.417Z,4.40
2019-03-16T11:52:40.137Z,4.40
2019-03-16T11:55:10.089Z,4.30
2019-03-16T11:57:38.806Z,4.30
2019-03-16T12:00:12.194Z,4.30
2019-03-16T12:02:41.041Z,4.30
2019-03-16T12:05:11.154Z,4.30
2019-03-16T12:07:39.905Z,4.30
2019-03-16T12:10:10.834Z,4.30
2019-03-16T12:12:39.901Z,4.30
2019-03-16T12:15:10.126Z,4.30
2019-03-16T12:17:38.879Z,4.30
2019-03-16T12:20:17.899Z,4.30
2019-03-16T12:22:45.498Z,4.30
2019-03-16T12:25:14.289Z,4.20
2019-03-16T12:27:43.013Z,4.20
2019-03-16T12:30:13.625Z,4.20
2019-03-16T12:32:42.496Z,4.20
2019-03-16T12:35:11.290Z,4.20
2019-03-16T12:37:40.018Z,4.10
2019-03-16T12:40:13.554Z,4.10
2019-03-16T12:42:42.287Z,4.10
2019-03-16T12:45:15.959Z,4.10
2019-03-16T12:47:44.712Z,4.10
2019-03-16T12:50:13.831Z,4.10
2019-03-16T12:52:42.549Z,4.10
2019-03-16T12:55:12.211Z,4.10
2019-03-16T12:57:41.051Z,4.10
2019-03-16T13:00:18.579Z,4.00
2019-03-16T13:02:47.327Z,3.90
2019-03-16T13:05:16.029Z,3.90
2019-03-16T13:07:44.768Z,3.90
2019-03-16T13:10:18.386Z,3.80
2019-03-16T13:12:47.116Z,3.90
2019-03-16T13:15:16.163Z,3.80
2019-03-16T13:17:44.873Z,3.80
2019-03-16T13:20:14.895Z,3.80
2019-03-16T13:22:43.647Z,3.80
2019-03-16T13:25:12.475Z,3.80
2019-03-16T13:27:41.196Z,3.80
2019-03-16T13:30:12.556Z,3.80
2019-03-16T13:32:41.270Z,3.80
2019-03-16T13:35:10.396Z,3.80
2019-03-16T13:37:39.355Z,3.80
2019-03-16T13:40:13.625Z,3.70
2019-03-16T13:42:42.382Z,3.60
2019-03-16T13:45:11.391Z,3.50
2019-03-16T13:47:40.098Z,3.50
2019-03-16T13:50:14.349Z,3.40
2019-03-16T13:52:43.469Z,3.50
2019-03-16T13:55:12.201Z,3.40
2019-03-16T13:57:41.001Z,3.40
2019-03-16T14:00:15.194Z,3.40
2019-03-16T14:02:43.913Z,3.30
2019-03-16T14:05:12.668Z,3.30
2019-03-16T14:07:41.862Z,3.40
2019-03-16T14:10:13.786Z,3.30
2019-03-16T14:12:42.570Z,3.30
2019-03-16T14:15:11.289Z,3.20
2019-03-16T14:17:40.370Z,3.20
2019-03-16T14:20:12.222Z,3.20
2019-03-16T14:22:41.018Z,3.20
2019-03-16T14:25:10.341Z,3.20
2019-03-16T14:27:39.101Z,3.20
2019-03-16T14:30:25.626Z,3.20
2019-03-16T14:32:43.845Z,3.20
2019-03-16T14:35:12.571Z,3.30
2019-03-16T14:37:41.294Z,3.40
2019-03-16T14:40:14.076Z,3.40
2019-03-16T14:42:42.826Z,3.40
2019-03-16T14:45:13.894Z,3.40
2019-03-16T14:47:42.637Z,3.40
2019-03-16T14:50:19.405Z,3.40
2019-03-16T14:52:48.179Z,3.40
2019-03-16T14:55:16.906Z,3.30
2019-03-16T14:57:45.629Z,3.20
2019-03-16T15:00:18.514Z,3.20
2019-03-16T15:02:47.239Z,3.20
2019-03-16T15:05:16.009Z,3.30
2019-03-16T15:07:44.822Z,3.30
2019-03-16T15:10:15.610Z,3.30
2019-03-16T15:12:44.351Z,3.40
2019-03-16T15:15:16.955Z,3.30
2019-03-16T15:17:45.693Z,3.30
2019-03-16T15:20:14.525Z,3.30
2019-03-16T15:22:43.257Z,3.30
2019-03-16T15:25:12.964Z,3.40
2019-03-16T15:27:41.718Z,3.30
2019-03-16T15:30:20.933Z,3.40
2019-03-16T15:32:49.697Z,3.30
2019-03-16T15:35:18.422Z,3.30
2019-03-16T15:37:47.143Z,3.30
2019-03-16T15:40:16.393Z,3.20
2019-03-16T15:42:45.136Z,3.30
2019-03-16T15:45:21.937Z,3.30
2019-03-16T15:47:50.696Z,3.40
2019-03-16T15:50:19.419Z,3.30
2019-03-16T15:52:48.206Z,3.30
2019-03-16T15:55:16.915Z,3.30
2019-03-16T15:57:45.644Z,3.30
2019-03-16T16:00:18.629Z,3.20
2019-03-16T16:02:47.345Z,3.10
2019-03-16T16:05:16.101Z,3.00
2019-03-16T16:07:44.927Z,2.90
2019-03-16T16:10:17.933Z,2.90
2019-03-16T16:12:46.641Z,2.80
2019-03-16T16:15:16.276Z,2.90
2019-03-16T16:17:44.990Z,2.90
2019-03-16T16:20:19.798Z,2.80
2019-03-16T16:22:48.655Z,2.70
2019-03-16T16:25:17.374Z,2.70
2019-03-16T16:27:46.102Z,2.70
2019-03-16T16:30:19.165Z,2.60
2019-03-16T16:32:48.142Z,2.60
2019-03-16T16:35:16.941Z,2.60
2019-03-16T16:37:46.071Z,2.50
2019-03-16T16:40:18.937Z,2.40
2019-03-16T16:42:48.133Z,2.50
2019-03-16T16:45:17.901Z,2.40
2019-03-16T16:47:46.628Z,2.40
2019-03-16T16:50:17.642Z,2.40
2019-03-16T16:52:46.457Z,2.40
2019-03-16T16:55:15.245Z,2.40
2019-03-16T16:57:43.977Z,2.40
2019-03-16T17:00:20.718Z,2.40
2019-03-16T17:02:49.435Z,2.40
2019-03-16T17:05:18.249Z,2.40
2019-03-16T17:07:47.102Z,2.40
2019-03-16T17:10:16.442Z,2.40
2019-03-16T17:12:45.345Z,2.40
2019-03-16T17:15:22.374Z,2.30
2019-03-16T17:17:51.214Z,2.30
2019-03-16T17:20:19.939Z,2.20
2019-03-16T17:22:49.774Z,2.20
2019-03-16T17:25:18.487Z,2.20
2019-03-16T17:27:48.550Z,2.20
2019-03-16T17:30:23.009Z,2.20
2019-03-16T17:32:51.833Z,2.10
2019-03-16T17:35:20.625Z,2.20
2019-03-16T17:37:49.344Z,2.20
2019-03-16T17:40:18.162Z,2.20
2019-03-16T17:42:46.886Z,2.20
2019-03-16T17:45:15.606Z,2.20
2019-03-16T17:47:44.358Z,2.20
2019-03-16T17:50:14.147Z,2.20
2019-03-16T17:52:43.059Z,2.20
2019-03-16T17:55:14.197Z,2.20
2019-03-16T17:57:45.260Z,2.10
2019-03-16T18:00:17.384Z,2.20
2019-03-16T18:02:51.762Z,2.10
2019-03-16T18:05:16.513Z,2.10
2019-03-16T18:07:45.257Z,2.00
2019-03-16T18:10:14.729Z,2.00
2019-03-16T18:12:43.478Z,1.90
2019-03-16T18:15:21.766Z,1.90
2019-03-16T18:17:50.552Z,1.90
2019-03-16T18:20:19.678Z,1.90
2019-03-16T18:22:48.662Z,1.90
2019-03-16T18:25:17.653Z,1.90
2019-03-16T18:27:46.451Z,2.00
2019-03-16T18:30:25.062Z,1.90
2019-03-16T18:32:53.810Z,1.90
2019-03-16T18:35:22.522Z,1.90
2019-03-16T18:37:51.362Z,1.90
2019-03-16T18:40:20.137Z,1.90
2019-03-16T18:42:48.866Z,1.90
2019-03-16T18:45:26.410Z,2.00
2019-03-16T18:47:55.130Z,2.00
2019-03-16T18:50:23.859Z,2.00
2019-03-16T18:52:52.609Z,2.00
2019-03-16T18:55:21.334Z,2.10
2019-03-16T18:57:50.059Z,2.10
2019-03-16T19:00:19.170Z,2.10
2019-03-16T19:02:47.893Z,2.10
2019-03-16T19:05:16.718Z,2.00
2019-03-16T19:07:45.519Z,2.10
2019-03-16T19:10:15.445Z,2.10
2019-03-16T19:12:44.538Z,2.10
2019-03-16T19:15:17.314Z,2.10
2019-03-16T19:17:58.093Z,2.10
2019-03-16T19:20:17.112Z,2.10
2019-03-16T19:22:46.098Z,2.10
2019-03-16T19:25:20.683Z,2.20
2019-03-16T19:27:49.421Z,2.20
2019-03-16T19:30:18.762Z,2.20
2019-03-16T19:32:47.511Z,2.20
2019-03-16T19:35:16.268Z,2.20
2019-03-16T19:37:45.001Z,2.20
2019-03-16T19:40:15.291Z,2.30
2019-03-16T19:42:46.495Z,2.30
2019-03-16T19:45:14.513Z,2.30
2019-03-16T19:47:43.378Z,2.30
2019-03-16T19:50:14.038Z,2.30
2019-03-16T19:52:42.778Z,2.30
2019-03-16T19:55:12.553Z,2.30
2019-03-16T19:57:41.386Z,2.30
2019-03-16T20:00:17.483Z,2.30
2019-03-16T20:02:51.142Z,2.30
2019-03-16T20:05:16.626Z,2.40
2019-03-16T20:07:45.331Z,2.40
2019-03-16T20:10:16.422Z,2.40
2019-03-16T20:12:45.145Z,2.40
2019-03-16T20:15:14.883Z,2.40
2019-03-16T20:17:43.656Z,2.40
2019-03-16T20:20:17.101Z,2.40
2019-03-16T20:22:45.833Z,2.40
2019-03-16T20:25:14.913Z,2.40
2019-03-16T20:27:43.755Z,2.40
2019-03-16T20:30:25.901Z,2.40
2019-03-16T20:33:03.065Z,2.40
2019-03-16T20:35:22.293Z,2.40
2019-03-16T20:37:51.045Z,2.40
2019-03-16T20:40:21.373Z,2.40
2019-03-16T20:42:50.205Z,2.50
2019-03-16T20:45:18.947Z,2.50
2019-03-16T20:47:48.014Z,2.50
2019-03-16T20:50:20.573Z,2.60
2019-03-16T20:52:49.512Z,2.60
2019-03-16T20:55:19.823Z,2.60
2019-03-16T20:57:48.569Z,2.60
2019-03-16T21:00:21.051Z,2.60
2019-03-16T21:02:49.973Z,2.60
2019-03-16T21:05:18.947Z,2.60
2019-03-16T21:07:47.782Z,2.60
2019-03-16T21:10:16.719Z,2.60
2019-03-16T21:12:45.575Z,2.60
2019-03-16T21:15:15.916Z,2.70
2019-03-16T21:17:44.668Z,2.70
2019-03-16T21:20:15.666Z,2.60
2019-03-16T21:22:44.806Z,2.70
2019-03-16T21:25:14.627Z,2.70
2019-03-16T21:27:43.346Z,2.70
2019-03-16T21:30:22.219Z,2.70
2019-03-16T21:32:51.042Z,2.70
2019-03-16T21:35:19.844Z,2.70
2019-03-16T21:37:48.594Z,2.70
2019-03-16T21:40:18.723Z,2.70
2019-03-16T21:42:47.385Z,2.70
2019-03-16T21:45:16.138Z,2.80
2019-03-16T21:47:45.305Z,2.80
2019-03-16T21:50:17.251Z,2.80
2019-03-16T21:52:46.042Z,2.80
2019-03-16T21:55:15.433Z,2.80
2019-03-16T21:57:44.323Z,2.80
2019-03-16T22:00:17.328Z,2.70
2019-03-16T22:02:46.016Z,2.70
2019-03-16T22:05:14.904Z,2.70
2019-03-16T22:07:43.653Z,2.70
2019-03-16T22:10:16.201Z,2.70
2019-03-16T22:12:44.954Z,2.80
2019-03-16T22:15:14.792Z,2.80
2019-03-16T22:17:43.531Z,2.80
2019-03-16T22:20:18.057Z,2.80
2019-03-16T22:22:46.777Z,2.80
2019-03-16T22:25:15.593Z,2.80
2019-03-16T22:27:44.463Z,2.80
2019-03-16T22:30:17.643Z,2.80
2019-03-16T22:32:46.356Z,2.80
2019-03-16T22:35:15.132Z,2.80
2019-03-16T22:37:43.850Z,2.90
2019-03-16T22:40:13.673Z,2.80
2019-03-16T22:42:42.597Z,2.80
2019-03-16T22:45:12.817Z,2.80
2019-03-16T22:47:41.600Z,2.80
2019-03-16T22:50:15.095Z,2.80
2019-03-16T22:52:43.824Z,2.80
2019-03-16T22:55:15.490Z,2.90
2019-03-16T22:57:43.158Z,2.90
2019-03-16T23:00:14.380Z,2.90
2019-03-16T23:02:43.108Z,2.90
2019-03-16T23:05:12.331Z,2.90
2019-03-16T23:07:41.048Z,2.90
2019-03-16T23:10:13.206Z,2.90
2019-03-16T23:12:42.029Z,2.90
2019-03-16T23:15:11.695Z,2.90
2019-03-16T23:17:41.692Z,2.90
2019-03-16T23:20:11.010Z,2.90
2019-03-16T23:22:39.800Z,2.90
2019-03-16T23:25:10.024Z,2.90
2019-03-16T23:27:40.761Z,3.00
2019-03-16T23:30:10.977Z,3.00
2019-03-16T23:32:39.769Z,3.00
2019-03-16T23:35:09.217Z,3.00
2019-03-16T23:37:37.941Z,3.00
2019-03-16T23:40:08.467Z,3.00
2019-03-16T23:42:37.243Z,3.10
2019-03-16T23:45:08.501Z,3.10
2019-03-16T23:47:37.371Z,3.10
2019-03-16T23:50:08.617Z,3.10
2019-03-16T23:52:37.370Z,3.10
2019-03-16T23:55:09.844Z,3.10
2019-03-16T23:57:38.839Z,3.10
